Terminal Aerodrome Forecast
Issued by NWS

Home | Current Version | Previous Version | Text Only | Print | Product List | Glossary On
Versions: 1 2 3 4 5 6 7 8 9 10 11 12 13 14 15 16 17
000
FTUS45 KABQ 211740
TAFSAF
TAF
KSAF 211740Z 2118/2218 25015G25KT P6SM VCSH SCT007 BKN035
      TEMPO 2118/2120 26020G30KT 2SM -SHSN BR BKN007
     FM212000 28025G35KT P6SM SCT015 BKN035
     FM220000 29024G33KT P6SM SCT035 BKN090
     FM220300 32015G25KT P6SM SCT100
     FM220600 34011KT P6SM SKC=

USA.gov is the U.S. government's official web portal to all federal, state and local government web resources and services.